Kassel, Tyskland

08:57 AM CET on Mars 05, 2015 (GMT +0100)
Calden | Change Station
CLOSE
Current Station
Airport
Location: Kassel Calden,
Elevation: 909 ft
Nearby Weather Stations

Elev 909 ft 51.41 °N, 9.38 °E | Updated 7 minutes ago

Mostly Cloudy
Mestadels molnigt
36 °F
Feels Like 27 °F
N
13
Vind Växlande Vind from V/NV

Idag
High -- | Low -- °F
--% Chance of Precip.
Yesterday
High -- | Low -- °F
Precip. -- tum
6:59 AM 6:09 PM
Fullmåne, 100% visible
Lufttryck 30.54 tum
Sikt 6.2 miles
Molnigt Few 1200 ft
Mestadels molnigt 2800 ft
Vindavkylning 27 °F
Daggpunkt 32 °F
Luftfuktighet 87%
Rainfall 0.00 tum
Snow Depth Not available.
UV 1 out of 12
Pollen Not available.
Air Quality Not available.
Flu Activity Not available.
METAR EDVK 050750Z 29011KT 9999 FEW012 BKN028 02/00 Q1034 RMK ATIS G

More Conditions Fewer Conditions

Lufttryck 30.54 tum
Sikt 6.2 miles
Molnigt Few 1200 ft
Mestadels molnigt 2800 ft
Vindavkylning 27 °F
Daggpunkt 32 °F
Luftfuktighet 87%
Rainfall 0.00 tum
Snow Depth Not available.
UV 1 out of 12
Pollen Not available.
Air Quality Not available.
Flu Activity Not available.
METAR EDVK 050750Z 29011KT 9999 FEW012 BKN028 02/00 Q1034 RMK ATIS G

More Conditions Fewer Conditions

10-Day Weather Forecast

Almanac

Astronomi

Mar. 05, 2015 Rise Set
Actual Time
Civil Twilight
Nautical Twilight
Astronomical Twilight
Månen
Length Of Visible Light
Dagens längd
Tomorrow will be .
, % of the Moon is Illuminated

Today's Extremes

Country Highs Country Lows

Community

WunderPhotos

Upload Photos

1,802,689 photos uploaded!

WunderBlogs® & News

Nearby

Air Quality

  Air Quality AQ Index Pollutant
Not available.

Snödjup

Station Depth Elevation

Earthquake Activity

Stad Distance Mag. Time & Date
Minimum magnitude displayed is 2.5.

Coastal Water Temperatures

Plats Temperatur

Nearby Weather Stations